createdAt,value
2018-10-11T00:00:13.377Z,58.90
2018-10-11T00:02:42.638Z,61.17
2018-10-11T00:05:11.857Z,63.80
2018-10-11T00:07:42.245Z,61.07
2018-10-11T00:10:12.466Z,72.27
2018-10-11T00:12:41.961Z,65.23
2018-10-11T00:15:11.637Z,59.53
2018-10-11T00:17:41.966Z,67.27
2018-10-11T00:20:12.639Z,58.50
2018-10-11T00:22:41.888Z,60.93
2018-10-11T00:25:11.356Z,62.93
2018-10-11T00:27:41.529Z,60.20
2018-10-11T00:30:10.782Z,60.20
2018-10-11T00:32:41.235Z,58.60
2018-10-11T00:35:10.258Z,54.27
2018-10-11T00:37:39.608Z,65.53
2018-10-11T00:40:11.210Z,66.07
2018-10-11T00:42:40.189Z,60.30
2018-10-11T00:45:10.167Z,63.30
2018-10-11T00:47:40.357Z,65.07
2018-10-11T00:50:09.227Z,72.00
2018-10-11T00:52:37.761Z,64.10
2018-10-11T00:55:06.097Z,60.63
2018-10-11T00:57:35.317Z,61.57
2018-10-11T01:00:04.822Z,66.43
2018-10-11T01:02:34.053Z,69.23
2018-10-11T01:05:02.428Z,65.67
2018-10-11T01:07:31.749Z,63.93
2018-10-11T01:10:01.378Z,64.67
2018-10-11T01:12:30.709Z,64.20
2018-10-11T01:14:59.215Z,66.73
2018-10-11T01:17:27.830Z,61.67
2018-10-11T01:19:56.189Z,65.40
2018-10-11T01:22:24.514Z,67.27
2018-10-11T01:24:52.865Z,71.97
2018-10-11T01:27:21.205Z,59.80
2018-10-11T01:29:49.683Z,73.23
2018-10-11T01:32:17.916Z,64.60
2018-10-11T01:34:46.269Z,70.80
2018-10-11T01:37:14.613Z,66.47
2018-10-11T01:42:12.384Z,71.43
2018-10-11T01:44:43.017Z,68.73
2018-10-11T01:47:12.617Z,64.60
2018-10-11T01:49:42.041Z,70.40
2018-10-11T01:52:11.294Z,69.53
2018-10-11T01:54:41.549Z,71.27
2018-10-11T01:57:10.563Z,64.43
2018-10-11T01:59:40.201Z,69.87
2018-10-11T02:02:10.249Z,66.60
2018-10-11T02:04:40.321Z,61.43
2018-10-11T02:07:09.221Z,60.53
2018-10-11T02:09:38.284Z,63.27
2018-10-11T02:12:07.773Z,71.07
2018-10-11T02:14:37.127Z,74.37
2018-10-11T02:17:06.553Z,65.03
2018-10-11T02:19:34.897Z,59.57
2018-10-11T02:22:04.115Z,68.03
2018-10-11T02:24:33.476Z,72.63
2018-10-11T02:27:02.710Z,67.73
2018-10-11T02:29:32.614Z,64.83
2018-10-11T02:32:01.994Z,62.93
2018-10-11T02:34:31.365Z,68.00
2018-10-11T02:37:00.606Z,63.87
2018-10-11T02:39:29.825Z,67.40
2018-10-11T02:41:59.105Z,73.73
2018-10-11T02:44:28.362Z,72.80
2018-10-11T02:46:57.632Z,74.93
2018-10-11T02:49:26.973Z,68.17
2018-10-11T02:51:56.957Z,73.63
2018-10-11T02:54:26.436Z,61.13
2018-10-11T02:57:02.317Z,72.10
2018-10-11T02:59:35.445Z,73.20
2018-10-11T03:02:19.726Z,63.90
2018-10-11T03:04:48.776Z,74.23
2018-10-11T03:07:17.753Z,64.57
2018-10-11T03:09:46.178Z,71.53
2018-10-11T03:12:14.514Z,60.70
2018-10-11T03:14:43.729Z,65.97
2018-10-11T03:17:12.562Z,64.83
2018-10-11T03:19:42.674Z,69.77
2018-10-11T03:22:12.526Z,67.80
2018-10-11T03:24:41.976Z,60.93
2018-10-11T03:27:11.484Z,62.70
2018-10-11T03:29:40.274Z,65.13
2018-10-11T03:32:09.225Z,67.97
2018-10-11T03:34:37.594Z,63.27
2018-10-11T03:37:05.958Z,67.53
2018-10-11T03:39:34.297Z,64.77
2018-10-11T03:42:02.623Z,57.97
2018-10-11T03:44:30.956Z,63.13
2018-10-11T03:46:59.289Z,63.17
2018-10-11T03:49:27.693Z,62.87
2018-10-11T03:51:56.097Z,68.13
2018-10-11T03:54:24.506Z,64.20
2018-10-11T03:56:53.123Z,61.07
2018-10-11T03:59:21.458Z,66.93
2018-10-11T04:01:49.844Z,64.00
2018-10-11T04:04:18.179Z,63.70
2018-10-11T04:06:46.505Z,67.23
2018-10-11T04:09:14.852Z,65.97
2018-10-11T04:11:43.217Z,56.23
2018-10-11T04:14:12.689Z,68.43
2018-10-11T04:16:42.474Z,60.27
2018-10-11T04:19:12.092Z,61.13
2018-10-11T04:21:41.761Z,57.07
2018-10-11T04:24:11.319Z,64.80
2018-10-11T04:26:39.773Z,68.93
2018-10-11T04:29:08.121Z,61.20
2018-10-11T04:31:36.461Z,71.80
2018-10-11T04:34:04.793Z,62.87
2018-10-11T04:36:33.122Z,78.33
2018-10-11T04:39:01.564Z,65.73
2018-10-11T04:41:29.908Z,64.77
2018-10-11T04:43:58.303Z,70.27
2018-10-11T04:46:26.639Z,69.10
2018-10-11T04:48:54.956Z,70.70
2018-10-11T04:51:23.281Z,76.10
2018-10-11T04:53:57.737Z,73.70
2018-10-11T04:56:27.713Z,68.33
2018-10-11T04:58:56.399Z,71.50
2018-10-11T05:01:24.845Z,67.40
2018-10-11T05:03:53.181Z,72.77
2018-10-11T05:06:21.560Z,63.97
2018-10-11T05:08:49.944Z,68.73
2018-10-11T05:11:18.589Z,53.77
2018-10-11T05:13:48.693Z,59.10
2018-10-11T05:16:17.540Z,59.80
2018-10-11T05:18:52.777Z,60.10
2018-10-11T05:21:21.174Z,68.50
2018-10-11T05:23:49.529Z,63.90
2018-10-11T05:26:18.004Z,57.57
2018-10-11T05:28:46.271Z,54.10
2018-10-11T05:31:14.623Z,60.90
2018-10-11T05:33:43.857Z,79.87
2018-10-11T05:36:14.009Z,61.30
2018-10-11T05:38:42.732Z,58.57
2018-10-11T05:41:12.886Z,59.47
2018-10-11T05:43:42.253Z,61.60
2018-10-11T05:46:16.383Z,65.83
2018-10-11T05:48:44.789Z,58.30
2018-10-11T05:51:13.174Z,57.37
2018-10-11T05:53:42.989Z,57.40
2018-10-11T05:56:13.345Z,55.70
2018-10-11T05:58:43.302Z,56.10
2018-10-11T06:01:13.447Z,57.13
2018-10-11T06:03:44.565Z,52.13
2018-10-11T06:06:13.562Z,48.97
2018-10-11T06:08:44.094Z,51.33
2018-10-11T06:11:13.837Z,57.30
2018-10-11T06:13:43.462Z,51.37
2018-10-11T06:16:14.309Z,46.57
2018-10-11T06:18:44.344Z,50.70
2018-10-11T06:21:16.879Z,45.90
2018-10-11T06:23:46.461Z,55.53
2018-10-11T06:26:15.115Z,57.00
2018-10-11T06:28:44.641Z,49.53
2018-10-11T06:31:13.002Z,52.77
2018-10-11T06:33:43.343Z,53.50
2018-10-11T06:36:12.864Z,46.30
2018-10-11T06:38:42.485Z,52.87
2018-10-11T06:41:11.881Z,47.03
2018-10-11T06:43:43.093Z,50.13
2018-10-11T06:46:12.992Z,46.80
2018-10-11T06:48:42.274Z,51.77
2018-10-11T06:51:12.665Z,53.00
2018-10-11T06:53:43.404Z,62.67
2018-10-11T06:56:12.853Z,62.17
2018-10-11T06:58:42.146Z,48.40
2018-10-11T07:01:12.413Z,47.67
2018-10-11T07:03:43.152Z,49.27
2018-10-11T07:06:12.591Z,49.03
2018-10-11T07:08:43.265Z,47.10
2018-10-11T07:11:12.436Z,44.90
2018-10-11T07:13:43.334Z,48.70
2018-10-11T07:16:13.949Z,52.60
2018-10-11T07:18:43.201Z,43.20
2018-10-11T07:21:12.668Z,42.67
2018-10-11T07:23:43.384Z,36.70
2018-10-11T07:26:12.322Z,42.50
2018-10-11T07:28:42.069Z,46.13
2018-10-11T07:31:12.798Z,40.30
2018-10-11T07:33:42.188Z,34.30
2018-10-11T07:36:12.378Z,43.97
2018-10-11T07:38:43.179Z,35.83
2018-10-11T07:41:12.459Z,36.20
2018-10-11T07:43:43.141Z,38.23
2018-10-11T07:46:12.490Z,34.73
2018-10-11T07:48:42.882Z,32.83
2018-10-11T07:51:12.029Z,46.23
2018-10-11T07:53:41.476Z,36.90
2018-10-11T07:56:10.665Z,34.27
2018-10-11T07:58:40.061Z,37.97
2018-10-11T08:01:08.777Z,29.03
2018-10-11T08:03:37.250Z,31.83
2018-10-11T08:06:05.604Z,28.37
2018-10-11T08:08:33.997Z,32.47
2018-10-11T08:11:02.469Z,31.23
2018-10-11T08:13:30.747Z,27.20
2018-10-11T08:15:59.155Z,27.53
2018-10-11T08:18:27.525Z,29.37
2018-10-11T08:20:55.877Z,33.37
2018-10-11T08:23:24.252Z,26.77
2018-10-11T08:25:52.877Z,27.23
2018-10-11T08:28:21.006Z,31.77
2018-10-11T08:30:50.180Z,27.70
2018-10-11T08:33:19.510Z,31.17
2018-10-11T08:35:47.867Z,24.93
2018-10-11T08:38:16.376Z,27.80
2018-10-11T08:40:45.576Z,26.77
2018-10-11T08:43:14.917Z,28.40
2018-10-11T08:45:43.341Z,24.40
2018-10-11T08:48:12.418Z,26.47
2018-10-11T08:50:41.863Z,25.07
2018-10-11T08:53:11.367Z,25.90
2018-10-11T08:55:40.813Z,31.67
2018-10-11T08:58:09.960Z,28.43
2018-10-11T09:00:40.757Z,25.43
2018-10-11T09:03:10.018Z,22.13
2018-10-11T09:05:40.254Z,21.80
2018-10-11T09:08:08.817Z,20.67
2018-10-11T09:10:38.551Z,18.87
2018-10-11T09:13:07.483Z,21.13
2018-10-11T09:15:36.767Z,25.40
2018-10-11T09:18:06.057Z,17.43
2018-10-11T09:20:35.277Z,20.47
2018-10-11T09:23:04.683Z,20.67
2018-10-11T09:25:33.873Z,20.47
2018-10-11T09:28:03.142Z,26.07
2018-10-11T09:30:32.216Z,21.03
2018-10-11T09:33:01.515Z,21.13
2018-10-11T09:35:30.790Z,21.60
2018-10-11T09:37:59.163Z,24.73
2018-10-11T09:40:28.441Z,19.27
2018-10-11T09:42:57.773Z,21.43
2018-10-11T09:45:26.963Z,18.57
2018-10-11T09:47:56.216Z,25.43
2018-10-11T09:50:25.515Z,22.27
2018-10-11T09:52:54.751Z,23.97
2018-10-11T09:55:24.108Z,20.80
2018-10-11T09:57:53.329Z,20.60
2018-10-11T10:00:27.909Z,25.13
2018-10-11T10:02:57.269Z,19.30
2018-10-11T10:05:26.508Z,20.77
2018-10-11T10:07:55.897Z,25.50
2018-10-11T10:10:25.305Z,23.60
2018-10-11T10:12:54.586Z,20.83
2018-10-11T10:15:23.647Z,23.40
2018-10-11T10:17:53.053Z,18.27
2018-10-11T10:20:22.292Z,22.40
2018-10-11T10:22:51.577Z,23.10
2018-10-11T10:25:19.958Z,21.20
2018-10-11T10:27:48.285Z,21.80
2018-10-11T10:30:22.918Z,21.87
2018-10-11T10:32:52.262Z,20.40
2018-10-11T10:35:21.550Z,26.70
2018-10-11T10:37:50.825Z,23.77
2018-10-11T10:40:20.109Z,22.43
2018-10-11T10:42:48.461Z,17.97
2018-10-11T10:45:17.779Z,24.57
2018-10-11T10:47:46.113Z,21.43
2018-10-11T10:50:15.518Z,18.37
2018-10-11T10:52:43.848Z,18.93
2018-10-11T10:55:13.133Z,19.03
2018-10-11T10:57:42.113Z,20.67
2018-10-11T11:00:12.089Z,16.80
2018-10-11T11:02:41.966Z,22.50
2018-10-11T11:05:12.685Z,21.10
2018-10-11T11:07:42.116Z,20.90
2018-10-11T11:10:11.912Z,24.03
2018-10-11T11:12:40.993Z,21.10
2018-10-11T11:15:10.765Z,22.80
2018-10-11T11:17:40.322Z,21.43
2018-10-11T11:20:09.346Z,21.40
2018-10-11T11:22:37.885Z,24.97
2018-10-11T11:25:06.558Z,17.50
2018-10-11T11:27:34.941Z,16.23
2018-10-11T11:30:03.318Z,17.23
2018-10-11T11:32:31.673Z,19.73
2018-10-11T11:35:00.014Z,17.60
2018-10-11T11:37:28.354Z,16.97
2018-10-11T11:39:56.696Z,16.50
2018-10-11T11:42:25.061Z,18.00
2018-10-11T11:44:53.465Z,19.50
2018-10-11T11:47:21.826Z,17.70
2018-10-11T11:49:50.186Z,20.83
2018-10-11T11:52:18.520Z,21.10
2018-10-11T11:54:46.866Z,19.43
2018-10-11T11:57:16.217Z,18.20
2018-10-11T11:59:45.453Z,14.60
2018-10-11T12:02:14.725Z,18.67
2018-10-11T12:04:43.898Z,19.37
2018-10-11T12:07:12.305Z,18.73
2018-10-11T12:09:41.870Z,14.60
2018-10-11T12:12:15.461Z,16.40
2018-10-11T12:14:44.114Z,15.10
2018-10-11T12:17:12.461Z,28.83
2018-10-11T12:19:41.390Z,19.70
2018-10-11T12:22:12.148Z,15.97
2018-10-11T12:24:42.972Z,21.27
2018-10-11T12:27:12.270Z,16.97
2018-10-11T12:29:42.909Z,14.80
2018-10-11T12:32:13.617Z,14.17
2018-10-11T12:34:42.858Z,17.63
2018-10-11T12:37:13.526Z,22.03
2018-10-11T12:39:43.249Z,16.03
2018-10-11T12:42:13.272Z,17.30
2018-10-11T12:44:43.694Z,24.33
2018-10-11T12:47:14.300Z,19.30
2018-10-11T12:49:47.449Z,14.83
2018-10-11T12:52:13.471Z,18.90
2018-10-11T12:54:42.815Z,15.83
2018-10-11T12:57:16.184Z,16.70
2018-10-11T12:59:41.925Z,17.37
2018-10-11T13:02:12.266Z,13.90
2018-10-11T13:04:43.000Z,13.20
2018-10-11T13:07:12.289Z,16.87
2018-10-11T13:09:42.105Z,19.70
2018-10-11T13:12:12.393Z,16.07
2018-10-11T13:14:43.069Z,16.90
2018-10-11T13:17:12.453Z,14.93
2018-10-11T13:19:43.462Z,14.77
2018-10-11T13:22:12.858Z,21.50
2018-10-11T13:24:46.836Z,53.77
2018-10-11T13:27:12.986Z,23.83
2018-10-11T13:29:42.493Z,15.00
2018-10-11T13:32:13.461Z,33.00
2018-10-11T13:34:42.378Z,16.83
2018-10-11T13:37:12.802Z,14.70
2018-10-11T13:39:50.532Z,13.70
2018-10-11T13:42:12.936Z,14.60
2018-10-11T13:44:42.598Z,18.93
2018-10-11T13:47:12.889Z,15.17
2018-10-11T13:49:42.637Z,20.47
2018-10-11T13:52:15.492Z,20.80
2018-10-11T13:54:42.345Z,15.97
2018-10-11T13:57:12.396Z,23.23
2018-10-11T13:59:41.406Z,15.53
2018-10-11T14:02:10.111Z,14.50
2018-10-11T14:04:39.977Z,18.87
2018-10-11T14:07:09.826Z,22.60
2018-10-11T14:09:40.059Z,17.37
2018-10-11T14:12:10.018Z,23.87
2018-10-11T14:14:39.966Z,19.50
2018-10-11T14:17:08.337Z,13.30
2018-10-11T14:19:36.693Z,16.87
2018-10-11T14:22:05.034Z,15.30
2018-10-11T14:24:33.392Z,17.73
2018-10-11T14:27:01.738Z,17.87
2018-10-11T14:29:30.126Z,16.30
2018-10-11T14:31:58.461Z,11.30
2018-10-11T14:34:26.793Z,18.40
2018-10-11T14:36:56.265Z,14.73
2018-10-11T14:39:24.534Z,16.13
2018-10-11T14:41:52.924Z,17.17
2018-10-11T14:44:21.254Z,16.80
2018-10-11T14:46:49.585Z,13.10
2018-10-11T14:49:17.953Z,20.47
2018-10-11T14:51:48.374Z,18.67
2018-10-11T14:54:14.998Z,21.30
2018-10-11T14:56:43.993Z,16.57
2018-10-11T14:59:12.574Z,14.40
2018-10-11T15:01:42.049Z,16.10
2018-10-11T15:04:11.706Z,14.17
2018-10-11T15:06:41.276Z,11.73
2018-10-11T15:09:11.352Z,15.00
2018-10-11T15:11:41.615Z,15.77
2018-10-11T15:14:12.407Z,13.03
2018-10-11T15:16:41.955Z,13.07
2018-10-11T15:19:10.768Z,14.27
2018-10-11T15:21:41.081Z,15.73
2018-10-11T15:24:11.055Z,13.60
2018-10-11T15:26:41.333Z,15.63
2018-10-11T15:29:12.160Z,21.80
2018-10-11T15:31:42.473Z,25.30
2018-10-11T15:34:13.124Z,12.47
2018-10-11T15:36:42.508Z,19.30
2018-10-11T15:39:13.873Z,16.10
2018-10-11T15:41:44.712Z,16.00
2018-10-11T15:44:13.255Z,15.20
2018-10-11T15:46:43.488Z,15.43
2018-10-11T15:49:12.620Z,17.90
2018-10-11T15:51:42.801Z,12.50
2018-10-11T15:54:13.620Z,16.50
2018-10-11T15:56:42.753Z,16.23
2018-10-11T15:59:13.528Z,14.03
2018-10-11T16:01:42.937Z,15.40
2018-10-11T16:04:12.365Z,27.03
2018-10-11T16:06:41.705Z,22.00
2018-10-11T16:09:11.887Z,18.37
2018-10-11T16:11:41.954Z,16.17
2018-10-11T16:14:12.155Z,19.07
2018-10-11T16:16:41.865Z,18.97
2018-10-11T16:19:10.813Z,17.20
2018-10-11T16:21:39.850Z,13.93
2018-10-11T16:24:08.176Z,20.13
2018-10-11T16:26:36.514Z,16.07
2018-10-11T16:29:04.879Z,21.40
2018-10-11T16:31:33.214Z,15.53
2018-10-11T16:34:01.643Z,13.57
2018-10-11T16:36:30.126Z,15.87
2018-10-11T16:38:58.459Z,14.83
2018-10-11T16:41:27.568Z,15.23
2018-10-11T16:43:55.923Z,15.73
2018-10-11T16:46:24.281Z,20.23
2018-10-11T16:48:52.694Z,14.67
2018-10-11T16:51:21.084Z,14.10
2018-10-11T16:53:49.487Z,17.10
2018-10-11T16:56:17.845Z,16.00
2018-10-11T16:58:52.859Z,21.23
2018-10-11T17:01:21.200Z,21.00
2018-10-11T17:03:50.485Z,18.90
2018-10-11T17:06:19.841Z,16.60
2018-10-11T17:08:49.041Z,18.63
2018-10-11T17:11:17.538Z,23.33
2018-10-11T17:13:46.781Z,20.90
2018-10-11T17:16:15.900Z,18.40
2018-10-11T17:18:44.317Z,19.73
2018-10-11T17:21:13.671Z,16.70
2018-10-11T17:23:42.528Z,19.83
2018-10-11T17:26:11.595Z,20.97
2018-10-11T17:28:41.124Z,13.63
2018-10-11T17:31:11.824Z,16.50
2018-10-11T17:33:41.378Z,18.03
2018-10-11T17:36:10.489Z,19.30
2018-10-11T17:38:38.893Z,19.63
2018-10-11T17:41:07.317Z,20.60
2018-10-11T17:43:35.678Z,14.50
2018-10-11T17:46:04.442Z,23.47
2018-10-11T17:48:32.790Z,20.43
2018-10-11T17:51:02.146Z,21.23
2018-10-11T17:53:31.380Z,23.47
2018-10-11T17:55:59.729Z,17.53
2018-10-11T17:58:29.302Z,21.60
2018-10-11T18:00:57.973Z,23.40
2018-10-11T18:03:26.353Z,17.00
2018-10-11T18:05:54.962Z,19.83
2018-10-11T18:08:23.318Z,17.57
2018-10-11T18:10:52.006Z,20.10
2018-10-11T18:13:21.401Z,17.77
2018-10-11T18:15:50.649Z,21.83
2018-10-11T18:18:18.995Z,16.50
2018-10-11T18:20:47.342Z,19.47
2018-10-11T18:23:16.653Z,19.20
2018-10-11T18:25:45.002Z,19.17
2018-10-11T18:28:14.354Z,19.80
2018-10-11T18:30:43.593Z,19.80
2018-10-11T18:33:12.898Z,21.00
2018-10-11T18:35:42.468Z,16.03
2018-10-11T18:38:11.818Z,17.17
2018-10-11T18:40:41.417Z,23.10
2018-10-11T18:43:11.546Z,17.90
2018-10-11T18:45:40.224Z,17.30
2018-10-11T18:48:09.209Z,17.17
2018-10-11T18:50:40.145Z,15.50
2018-10-11T18:53:10.475Z,21.00
2018-10-11T18:55:39.908Z,18.73
2018-10-11T18:58:09.982Z,15.07
2018-10-11T19:00:40.481Z,15.30
2018-10-11T19:03:09.963Z,16.93
2018-10-11T19:05:40.371Z,22.87
2018-10-11T19:08:08.832Z,21.03
2018-10-11T19:10:37.182Z,17.53
2018-10-11T19:13:05.789Z,19.77
2018-10-11T19:15:35.127Z,21.83
2018-10-11T19:18:03.868Z,18.07
2018-10-11T19:20:33.252Z,19.97
2018-10-11T19:23:01.603Z,16.27
2018-10-11T19:25:30.953Z,20.17
2018-10-11T19:28:00.160Z,19.77
2018-10-11T19:30:29.391Z,20.73
2018-10-11T19:32:57.740Z,14.33
2018-10-11T19:35:27.022Z,20.87
2018-10-11T19:37:56.361Z,19.03
2018-10-11T19:40:25.656Z,20.10
2018-10-11T19:42:54.905Z,17.30
2018-10-11T19:45:24.598Z,25.73
2018-10-11T19:47:52.926Z,19.07
2018-10-11T19:50:24.101Z,18.80
2018-10-11T19:52:52.533Z,15.60
2018-10-11T19:55:21.730Z,14.83
2018-10-11T19:57:51.041Z,16.47
2018-10-11T20:00:20.268Z,14.73
2018-10-11T20:02:49.521Z,16.60
2018-10-11T20:05:18.889Z,14.53
2018-10-11T20:07:48.245Z,15.63
2018-10-11T20:10:16.672Z,23.83
2018-10-11T20:12:45.433Z,14.00
2018-10-11T20:15:14.682Z,16.63
2018-10-11T20:17:43.440Z,17.77
2018-10-11T20:20:12.909Z,18.57
2018-10-11T20:22:43.005Z,17.60
2018-10-11T20:25:12.506Z,15.77
2018-10-11T20:27:41.358Z,15.70
2018-10-11T20:30:11.742Z,17.27
2018-10-11T20:32:40.640Z,15.40
2018-10-11T20:35:10.049Z,19.50
2018-10-11T20:37:40.673Z,20.23
2018-10-11T20:40:10.177Z,23.30
2018-10-11T20:42:40.781Z,16.67
2018-10-11T20:45:10.121Z,13.60
2018-10-11T20:47:39.147Z,17.90
2018-10-11T20:50:10.425Z,15.33
2018-10-11T20:52:38.763Z,14.67
2018-10-11T20:55:07.117Z,16.77
2018-10-11T20:57:35.497Z,14.23
2018-10-11T21:00:03.879Z,21.00
2018-10-11T21:02:33.133Z,23.23
2018-10-11T21:05:01.502Z,19.80
2018-10-11T21:07:29.869Z,13.93
2018-10-11T21:09:58.249Z,14.43
2018-10-11T21:12:26.681Z,20.37
2018-10-11T21:14:55.017Z,17.27
2018-10-11T21:17:23.397Z,13.37
2018-10-11T21:19:51.800Z,14.67
2018-10-11T21:22:20.177Z,16.37
2018-10-11T21:24:48.641Z,16.23
2018-10-11T21:27:17.062Z,17.07
2018-10-11T21:29:45.505Z,16.30
2018-10-11T21:32:14.670Z,13.97
2018-10-11T21:34:43.012Z,13.30
2018-10-11T21:37:12.879Z,19.10
2018-10-11T21:39:42.238Z,15.63
2018-10-11T21:42:11.730Z,17.63
2018-10-11T21:44:42.084Z,15.43
2018-10-11T21:47:14.825Z,14.83
2018-10-11T21:49:44.126Z,16.33
2018-10-11T21:52:14.781Z,17.50
2018-10-11T21:54:44.033Z,14.40
2018-10-11T21:57:14.535Z,14.70
2018-10-11T21:59:43.919Z,17.97
2018-10-11T22:02:13.221Z,21.87
2018-10-11T22:04:43.465Z,19.37
2018-10-11T22:07:12.957Z,13.53
2018-10-11T22:09:43.409Z,17.40
2018-10-11T22:12:14.016Z,18.47
2018-10-11T22:14:43.395Z,17.77
2018-10-11T22:17:12.965Z,18.00
2018-10-11T22:19:43.178Z,23.60
2018-10-11T22:22:12.065Z,19.43
2018-10-11T22:24:41.743Z,17.50
2018-10-11T22:27:11.190Z,16.00
2018-10-11T22:29:41.829Z,17.73
2018-10-11T22:32:11.305Z,13.40
2018-10-11T22:34:41.959Z,17.07
2018-10-11T22:37:13.109Z,14.47
2018-10-11T22:39:42.164Z,16.37
2018-10-11T22:42:12.993Z,25.73
2018-10-11T22:44:42.669Z,20.47
2018-10-11T22:47:12.045Z,26.03
2018-10-11T22:49:41.709Z,21.27
2018-10-11T22:52:11.314Z,18.53
2018-10-11T22:54:41.540Z,21.87
2018-10-11T22:57:11.568Z,17.43
2018-10-11T22:59:40.397Z,19.87
2018-10-11T23:02:08.757Z,17.50
2018-10-11T23:04:37.090Z,18.40
2018-10-11T23:07:05.486Z,16.40
2018-10-11T23:09:33.828Z,19.97
2018-10-11T23:12:02.215Z,18.90
2018-10-11T23:14:30.550Z,20.07
2018-10-11T23:16:58.952Z,19.17
2018-10-11T23:19:27.554Z,19.10
2018-10-11T23:21:56.034Z,24.17
2018-10-11T23:24:25.718Z,18.17
2018-10-11T23:26:54.076Z,17.33
2018-10-11T23:29:22.413Z,27.23
2018-10-11T23:31:50.871Z,25.83
2018-10-11T23:34:20.217Z,20.50
2018-10-11T23:36:48.549Z,29.97
2018-10-11T23:39:16.885Z,27.17
2018-10-11T23:41:45.217Z,28.83
2018-10-11T23:44:13.569Z,28.50
2018-10-11T23:46:42.656Z,22.87
2018-10-11T23:49:12.901Z,20.20
2018-10-11T23:51:42.664Z,16.37
2018-10-11T23:54:11.976Z,27.30
2018-10-11T23:56:41.841Z,29.83
2018-10-11T23:59:12.490Z,19.00
